sensor_id;sensor_type;location;lat;lon;timestamp;P1;durP1;ratioP1;P2;durP2;ratioP2
21564;SDS011;10943;48.738;9.320;2022-09-09T00:02:05;7.90;;;2.30;;
21564;SDS011;10943;48.738;9.320;2022-09-09T00:04:52;4.97;;;2.00;;
21564;SDS011;10943;48.738;9.320;2022-09-09T00:07:47;4.97;;;1.73;;
21564;SDS011;10943;48.738;9.320;2022-09-09T00:15:37;8.52;;;2.40;;
21564;SDS011;10943;48.738;9.320;2022-09-09T00:18:25;8.18;;;2.10;;
21564;SDS011;10943;48.738;9.320;2022-09-09T00:21:20;7.65;;;1.95;;
21564;SDS011;10943;48.738;9.320;2022-09-09T00:24:00;7.10;;;2.20;;
21564;SDS011;10943;48.738;9.320;2022-09-09T00:27:08;8.10;;;2.22;;
21564;SDS011;10943;48.738;9.320;2022-09-09T00:40:23;4.28;;;1.77;;
21564;SDS011;10943;48.738;9.320;2022-09-09T00:48:37;9.80;;;2.30;;
21564;SDS011;10943;48.738;9.320;2022-09-09T00:51:29;6.68;;;2.40;;
21564;SDS011;10943;48.738;9.320;2022-09-09T00:54:48;5.80;;;1.63;;
21564;SDS011;10943;48.738;9.320;2022-09-09T00:57:33;12.13;;;1.60;;
21564;SDS011;10943;48.738;9.320;2022-09-09T01:00:24;5.10;;;1.80;;
21564;SDS011;10943;48.738;9.320;2022-09-09T01:05:45;6.28;;;1.83;;
21564;SDS011;10943;48.738;9.320;2022-09-09T01:11:20;9.30;;;2.00;;
21564;SDS011;10943;48.738;9.320;2022-09-09T01:14:10;6.65;;;1.77;;
21564;SDS011;10943;48.738;9.320;2022-09-09T01:17:01;4.93;;;1.60;;
21564;SDS011;10943;48.738;9.320;2022-09-09T01:22:35;7.22;;;2.35;;
21564;SDS011;10943;48.738;9.320;2022-09-09T01:29:09;6.95;;;1.92;;
21564;SDS011;10943;48.738;9.320;2022-09-09T01:31:54;7.78;;;2.22;;
21564;SDS011;10943;48.738;9.320;2022-09-09T01:34:31;5.68;;;2.05;;
21564;SDS011;10943;48.738;9.320;2022-09-09T01:37:07;6.57;;;1.67;;
21564;SDS011;10943;48.738;9.320;2022-09-09T01:39:40;4.57;;;1.60;;
21564;SDS011;10943;48.738;9.320;2022-09-09T01:42:14;6.40;;;2.33;;
21564;SDS011;10943;48.738;9.320;2022-09-09T01:44:44;9.10;;;2.70;;
21564;SDS011;10943;48.738;9.320;2022-09-09T01:47:12;6.75;;;2.40;;
21564;SDS011;10943;48.738;9.320;2022-09-09T01:50:00;9.30;;;2.45;;
21564;SDS011;10943;48.738;9.320;2022-09-09T01:52:34;6.63;;;1.92;;
21564;SDS011;10943;48.738;9.320;2022-09-09T01:55:07;7.70;;;1.80;;
21564;SDS011;10943;48.738;9.320;2022-09-09T02:01:15;5.30;;;1.70;;
21564;SDS011;10943;48.738;9.320;2022-09-09T02:03:57;7.70;;;1.88;;
21564;SDS011;10943;48.738;9.320;2022-09-09T02:06:39;7.75;;;2.17;;
21564;SDS011;10943;48.738;9.320;2022-09-09T02:09:23;7.18;;;2.03;;
21564;SDS011;10943;48.738;9.320;2022-09-09T02:11:57;6.00;;;2.00;;
21564;SDS011;10943;48.738;9.320;2022-09-09T02:14:44;6.75;;;2.30;;
21564;SDS011;10943;48.738;9.320;2022-09-09T02:17:26;9.52;;;2.00;;
21564;SDS011;10943;48.738;9.320;2022-09-09T02:20:08;8.98;;;2.33;;
21564;SDS011;10943;48.738;9.320;2022-09-09T02:22:47;6.75;;;2.05;;
21564;SDS011;10943;48.738;9.320;2022-09-09T02:25:21;9.40;;;1.90;;
21564;SDS011;10943;48.738;9.320;2022-09-09T02:27:58;5.63;;;2.17;;
21564;SDS011;10943;48.738;9.320;2022-09-09T02:30:27;8.23;;;2.13;;
21564;SDS011;10943;48.738;9.320;2022-09-09T02:33:00;7.15;;;2.05;;
21564;SDS011;10943;48.738;9.320;2022-09-09T02:36:02;9.75;;;2.13;;
21564;SDS011;10943;48.738;9.320;2022-09-09T02:38:45;9.18;;;2.35;;
21564;SDS011;10943;48.738;9.320;2022-09-09T02:41:33;7.78;;;2.05;;
21564;SDS011;10943;48.738;9.320;2022-09-09T02:44:17;8.57;;;2.33;;
21564;SDS011;10943;48.738;9.320;2022-09-09T02:52:20;7.90;;;2.95;;
21564;SDS011;10943;48.738;9.320;2022-09-09T02:58:54;9.15;;;3.28;;
21564;SDS011;10943;48.738;9.320;2022-09-09T03:01:35;9.70;;;3.80;;
21564;SDS011;10943;48.738;9.320;2022-09-09T03:04:16;6.88;;;3.10;;
21564;SDS011;10943;48.738;9.320;2022-09-09T03:06:55;9.48;;;4.40;;
21564;SDS011;10943;48.738;9.320;2022-09-09T03:10:07;10.90;;;4.97;;
21564;SDS011;10943;48.738;9.320;2022-09-09T03:12:48;9.82;;;4.07;;
21564;SDS011;10943;48.738;9.320;2022-09-09T03:15:31;12.80;;;4.47;;
21564;SDS011;10943;48.738;9.320;2022-09-09T03:18:11;9.10;;;3.85;;
21564;SDS011;10943;48.738;9.320;2022-09-09T03:20:51;9.98;;;4.15;;
21564;SDS011;10943;48.738;9.320;2022-09-09T03:23:32;6.53;;;3.30;;
21564;SDS011;10943;48.738;9.320;2022-09-09T03:26:13;12.13;;;3.78;;
21564;SDS011;10943;48.738;9.320;2022-09-09T03:28:58;9.90;;;3.50;;
21564;SDS011;10943;48.738;9.320;2022-09-09T03:31:42;9.10;;;3.40;;
21564;SDS011;10943;48.738;9.320;2022-09-09T03:34:22;9.05;;;2.95;;
21564;SDS011;10943;48.738;9.320;2022-09-09T03:37:04;10.20;;;3.35;;
21564;SDS011;10943;48.738;9.320;2022-09-09T03:39:32;10.00;;;3.08;;
21564;SDS011;10943;48.738;9.320;2022-09-09T03:41:59;10.30;;;2.97;;
21564;SDS011;10943;48.738;9.320;2022-09-09T03:44:31;11.57;;;2.60;;
21564;SDS011;10943;48.738;9.320;2022-09-09T03:46:59;8.10;;;2.90;;
21564;SDS011;10943;48.738;9.320;2022-09-09T03:49:28;8.68;;;2.70;;
21564;SDS011;10943;48.738;9.320;2022-09-09T03:51:56;9.32;;;2.53;;
21564;SDS011;10943;48.738;9.320;2022-09-09T03:54:25;10.52;;;2.80;;
21564;SDS011;10943;48.738;9.320;2022-09-09T03:56:52;7.68;;;2.00;;
21564;SDS011;10943;48.738;9.320;2022-09-09T03:59:22;8.18;;;2.53;;
21564;SDS011;10943;48.738;9.320;2022-09-09T04:01:50;11.43;;;2.30;;
21564;SDS011;10943;48.738;9.320;2022-09-09T04:04:18;6.20;;;2.30;;
21564;SDS011;10943;48.738;9.320;2022-09-09T04:06:46;7.75;;;2.25;;
21564;SDS011;10943;48.738;9.320;2022-09-09T04:09:14;5.72;;;1.98;;
21564;SDS011;10943;48.738;9.320;2022-09-09T04:11:42;6.82;;;2.10;;
21564;SDS011;10943;48.738;9.320;2022-09-09T04:14:10;7.25;;;2.22;;
21564;SDS011;10943;48.738;9.320;2022-09-09T04:16:38;8.10;;;2.35;;
21564;SDS011;10943;48.738;9.320;2022-09-09T04:19:10;6.88;;;2.03;;
21564;SDS011;10943;48.738;9.320;2022-09-09T04:21:41;6.72;;;1.90;;
21564;SDS011;10943;48.738;9.320;2022-09-09T04:24:09;9.73;;;1.77;;
21564;SDS011;10943;48.738;9.320;2022-09-09T04:26:37;5.75;;;1.90;;
21564;SDS011;10943;48.738;9.320;2022-09-09T04:29:04;6.70;;;1.65;;
21564;SDS011;10943;48.738;9.320;2022-09-09T04:31:33;5.50;;;1.90;;
21564;SDS011;10943;48.738;9.320;2022-09-09T04:34:01;6.25;;;1.90;;
21564;SDS011;10943;48.738;9.320;2022-09-09T04:36:32;6.55;;;1.75;;
21564;SDS011;10943;48.738;9.320;2022-09-09T04:39:03;4.70;;;1.60;;
21564;SDS011;10943;48.738;9.320;2022-09-09T04:41:30;4.75;;;1.70;;
21564;SDS011;10943;48.738;9.320;2022-09-09T04:43:58;7.22;;;2.05;;
21564;SDS011;10943;48.738;9.320;2022-09-09T04:46:27;4.82;;;1.90;;
21564;SDS011;10943;48.738;9.320;2022-09-09T04:48:56;6.07;;;1.60;;
21564;SDS011;10943;48.738;9.320;2022-09-09T04:51:27;6.50;;;1.60;;
21564;SDS011;10943;48.738;9.320;2022-09-09T04:53:54;5.80;;;1.70;;
21564;SDS011;10943;48.738;9.320;2022-09-09T04:56:22;8.98;;;2.25;;
21564;SDS011;10943;48.738;9.320;2022-09-09T04:58:56;5.60;;;1.60;;
21564;SDS011;10943;48.738;9.320;2022-09-09T05:01:35;6.97;;;1.67;;
21564;SDS011;10943;48.738;9.320;2022-09-09T05:04:04;6.25;;;2.00;;
21564;SDS011;10943;48.738;9.320;2022-09-09T05:06:33;10.35;;;1.92;;
21564;SDS011;10943;48.738;9.320;2022-09-09T05:09:01;8.60;;;2.10;;
21564;SDS011;10943;48.738;9.320;2022-09-09T05:11:30;5.45;;;2.15;;
21564;SDS011;10943;48.738;9.320;2022-09-09T05:14:08;8.30;;;2.20;;
21564;SDS011;10943;48.738;9.320;2022-09-09T05:16:38;9.43;;;2.50;;
21564;SDS011;10943;48.738;9.320;2022-09-09T05:19:06;5.70;;;2.03;;
21564;SDS011;10943;48.738;9.320;2022-09-09T05:21:42;9.68;;;2.42;;
21564;SDS011;10943;48.738;9.320;2022-09-09T05:24:11;8.98;;;2.47;;
21564;SDS011;10943;48.738;9.320;2022-09-09T05:26:39;7.80;;;2.40;;
21564;SDS011;10943;48.738;9.320;2022-09-09T05:29:07;12.18;;;2.97;;
21564;SDS011;10943;48.738;9.320;2022-09-09T05:31:34;6.97;;;2.08;;
21564;SDS011;10943;48.738;9.320;2022-09-09T05:34:08;8.27;;;2.60;;
21564;SDS011;10943;48.738;9.320;2022-09-09T05:36:35;8.73;;;2.30;;
21564;SDS011;10943;48.738;9.320;2022-09-09T05:39:03;9.07;;;1.95;;
21564;SDS011;10943;48.738;9.320;2022-09-09T05:41:32;8.90;;;2.10;;
21564;SDS011;10943;48.738;9.320;2022-09-09T05:44:02;10.10;;;2.55;;
21564;SDS011;10943;48.738;9.320;2022-09-09T05:46:34;6.88;;;2.50;;
21564;SDS011;10943;48.738;9.320;2022-09-09T05:49:02;9.05;;;2.33;;
21564;SDS011;10943;48.738;9.320;2022-09-09T05:51:33;10.95;;;2.20;;
21564;SDS011;10943;48.738;9.320;2022-09-09T05:54:06;9.30;;;2.22;;
21564;SDS011;10943;48.738;9.320;2022-09-09T05:56:38;9.85;;;2.75;;
21564;SDS011;10943;48.738;9.320;2022-09-09T05:59:07;7.25;;;2.13;;
21564;SDS011;10943;48.738;9.320;2022-09-09T06:01:36;9.30;;;3.05;;
21564;SDS011;10943;48.738;9.320;2022-09-09T06:04:14;7.43;;;2.08;;
21564;SDS011;10943;48.738;9.320;2022-09-09T06:06:42;8.40;;;1.88;;
21564;SDS011;10943;48.738;9.320;2022-09-09T06:09:13;8.00;;;2.00;;
21564;SDS011;10943;48.738;9.320;2022-09-09T06:11:42;6.57;;;1.90;;
21564;SDS011;10943;48.738;9.320;2022-09-09T06:14:12;9.98;;;1.52;;
21564;SDS011;10943;48.738;9.320;2022-09-09T06:16:39;9.00;;;1.98;;
21564;SDS011;10943;48.738;9.320;2022-09-09T06:19:17;6.78;;;1.75;;
21564;SDS011;10943;48.738;9.320;2022-09-09T06:21:45;8.38;;;2.13;;
21564;SDS011;10943;48.738;9.320;2022-09-09T06:24:15;6.80;;;1.65;;
21564;SDS011;10943;48.738;9.320;2022-09-09T06:26:43;7.78;;;1.75;;
21564;SDS011;10943;48.738;9.320;2022-09-09T06:29:16;8.88;;;2.25;;
21564;SDS011;10943;48.738;9.320;2022-09-09T06:31:44;12.95;;;2.80;;
21564;SDS011;10943;48.738;9.320;2022-09-09T06:34:15;14.65;;;2.80;;
21564;SDS011;10943;48.738;9.320;2022-09-09T06:36:47;7.15;;;2.33;;
21564;SDS011;10943;48.738;9.320;2022-09-09T06:39:15;11.10;;;2.50;;
21564;SDS011;10943;48.738;9.320;2022-09-09T06:41:44;12.43;;;2.88;;
21564;SDS011;10943;48.738;9.320;2022-09-09T06:44:31;12.68;;;2.88;;
21564;SDS011;10943;48.738;9.320;2022-09-09T06:47:02;9.40;;;2.60;;
21564;SDS011;10943;48.738;9.320;2022-09-09T06:49:32;8.80;;;2.63;;
21564;SDS011;10943;48.738;9.320;2022-09-09T06:52:01;11.35;;;3.00;;
21564;SDS011;10943;48.738;9.320;2022-09-09T06:54:29;13.55;;;2.78;;
21564;SDS011;10943;48.738;9.320;2022-09-09T06:56:57;13.60;;;2.78;;
21564;SDS011;10943;48.738;9.320;2022-09-09T06:59:47;8.18;;;2.42;;
21564;SDS011;10943;48.738;9.320;2022-09-09T07:02:14;11.10;;;2.63;;
21564;SDS011;10943;48.738;9.320;2022-09-09T07:04:42;7.30;;;2.08;;
21564;SDS011;10943;48.738;9.320;2022-09-09T07:07:10;8.05;;;2.38;;
21564;SDS011;10943;48.738;9.320;2022-09-09T07:09:40;6.82;;;1.73;;
21564;SDS011;10943;48.738;9.320;2022-09-09T07:12:08;8.90;;;2.08;;
21564;SDS011;10943;48.738;9.320;2022-09-09T07:14:41;4.43;;;1.50;;
21564;SDS011;10943;48.738;9.320;2022-09-09T07:17:09;6.90;;;1.42;;
21564;SDS011;10943;48.738;9.320;2022-09-09T07:19:39;5.47;;;1.40;;
21564;SDS011;10943;48.738;9.320;2022-09-09T07:22:06;5.20;;;1.60;;
21564;SDS011;10943;48.738;9.320;2022-09-09T07:24:34;5.43;;;1.17;;
21564;SDS011;10943;48.738;9.320;2022-09-09T07:27:02;6.57;;;1.27;;
21564;SDS011;10943;48.738;9.320;2022-09-09T07:29:30;4.28;;;1.20;;
21564;SDS011;10943;48.738;9.320;2022-09-09T07:31:58;6.80;;;1.48;;
21564;SDS011;10943;48.738;9.320;2022-09-09T07:34:31;5.35;;;1.58;;
21564;SDS011;10943;48.738;9.320;2022-09-09T07:36:58;5.93;;;1.40;;
21564;SDS011;10943;48.738;9.320;2022-09-09T07:39:27;4.55;;;1.10;;
21564;SDS011;10943;48.738;9.320;2022-09-09T07:41:55;5.45;;;1.17;;
21564;SDS011;10943;48.738;9.320;2022-09-09T07:44:24;5.47;;;1.27;;
21564;SDS011;10943;48.738;9.320;2022-09-09T07:47:01;5.22;;;1.00;;
21564;SDS011;10943;48.738;9.320;2022-09-09T07:49:37;7.80;;;1.58;;
21564;SDS011;10943;48.738;9.320;2022-09-09T07:52:07;6.82;;;1.65;;
21564;SDS011;10943;48.738;9.320;2022-09-09T07:54:37;6.07;;;1.30;;
21564;SDS011;10943;48.738;9.320;2022-09-09T07:57:06;6.78;;;1.38;;
21564;SDS011;10943;48.738;9.320;2022-09-09T07:59:36;5.95;;;1.35;;
21564;SDS011;10943;48.738;9.320;2022-09-09T08:02:04;5.32;;;1.50;;
21564;SDS011;10943;48.738;9.320;2022-09-09T08:04:34;4.75;;;1.33;;
21564;SDS011;10943;48.738;9.320;2022-09-09T08:07:02;5.63;;;1.50;;
21564;SDS011;10943;48.738;9.320;2022-09-09T08:09:38;6.68;;;1.50;;
21564;SDS011;10943;48.738;9.320;2022-09-09T08:12:12;5.28;;;1.50;;
21564;SDS011;10943;48.738;9.320;2022-09-09T08:14:40;6.88;;;1.30;;
21564;SDS011;10943;48.738;9.320;2022-09-09T08:17:08;4.38;;;1.20;;
21564;SDS011;10943;48.738;9.320;2022-09-09T08:19:37;5.50;;;1.73;;
21564;SDS011;10943;48.738;9.320;2022-09-09T08:22:10;5.43;;;1.35;;
21564;SDS011;10943;48.738;9.320;2022-09-09T08:24:39;4.10;;;1.27;;
21564;SDS011;10943;48.738;9.320;2022-09-09T08:27:08;8.23;;;1.35;;
21564;SDS011;10943;48.738;9.320;2022-09-09T08:29:37;4.22;;;1.17;;
21564;SDS011;10943;48.738;9.320;2022-09-09T08:32:06;4.45;;;1.10;;
21564;SDS011;10943;48.738;9.320;2022-09-09T08:34:37;4.32;;;1.20;;
21564;SDS011;10943;48.738;9.320;2022-09-09T08:37:11;7.13;;;1.30;;
21564;SDS011;10943;48.738;9.320;2022-09-09T08:39:42;5.38;;;1.15;;
21564;SDS011;10943;48.738;9.320;2022-09-09T08:42:23;3.67;;;0.90;;
21564;SDS011;10943;48.738;9.320;2022-09-09T08:45:24;5.70;;;1.13;;
21564;SDS011;10943;48.738;9.320;2022-09-09T08:48:09;4.18;;;1.00;;
21564;SDS011;10943;48.738;9.320;2022-09-09T08:50:59;4.47;;;0.88;;
21564;SDS011;10943;48.738;9.320;2022-09-09T08:53:38;7.97;;;1.10;;
21564;SDS011;10943;48.738;9.320;2022-09-09T08:56:16;4.25;;;1.10;;
21564;SDS011;10943;48.738;9.320;2022-09-09T08:58:55;4.32;;;1.00;;
21564;SDS011;10943;48.738;9.320;2022-09-09T09:12:43;5.18;;;1.20;;
21564;SDS011;10943;48.738;9.320;2022-09-09T09:15:18;3.97;;;1.05;;
21564;SDS011;10943;48.738;9.320;2022-09-09T09:17:59;6.75;;;1.20;;
21564;SDS011;10943;48.738;9.320;2022-09-09T09:20:29;5.22;;;1.08;;
21564;SDS011;10943;48.738;9.320;2022-09-09T09:23:22;7.78;;;1.45;;
21564;SDS011;10943;48.738;9.320;2022-09-09T09:25:59;5.68;;;1.42;;
21564;SDS011;10943;48.738;9.320;2022-09-09T09:28:30;3.75;;;1.05;;
21564;SDS011;10943;48.738;9.320;2022-09-09T09:31:11;4.20;;;1.10;;
21564;SDS011;10943;48.738;9.320;2022-09-09T09:33:53;6.40;;;1.20;;
21564;SDS011;10943;48.738;9.320;2022-09-09T09:36:45;8.27;;;1.40;;
21564;SDS011;10943;48.738;9.320;2022-09-09T09:39:28;4.90;;;1.00;;
21564;SDS011;10943;48.738;9.320;2022-09-09T09:42:27;5.22;;;0.98;;
21564;SDS011;10943;48.738;9.320;2022-09-09T09:45:06;5.78;;;0.70;;
21564;SDS011;10943;48.738;9.320;2022-09-09T09:48:09;4.47;;;0.80;;
21564;SDS011;10943;48.738;9.320;2022-09-09T10:07:26;2.50;;;0.70;;
21564;SDS011;10943;48.738;9.320;2022-09-09T10:09:56;3.05;;;0.88;;
21564;SDS011;10943;48.738;9.320;2022-09-09T10:12:30;4.68;;;0.80;;
21564;SDS011;10943;48.738;9.320;2022-09-09T10:27:27;2.80;;;0.60;;
21564;SDS011;10943;48.738;9.320;2022-09-09T10:30:25;4.07;;;0.80;;
21564;SDS011;10943;48.738;9.320;2022-09-09T10:36:18;3.35;;;0.90;;
21564;SDS011;10943;48.738;9.320;2022-09-09T10:39:08;4.80;;;1.30;;
21564;SDS011;10943;48.738;9.320;2022-09-09T10:42:12;5.03;;;1.50;;
21564;SDS011;10943;48.738;9.320;2022-09-09T10:47:38;4.63;;;1.30;;
21564;SDS011;10943;48.738;9.320;2022-09-09T10:50:37;3.40;;;0.88;;
21564;SDS011;10943;48.738;9.320;2022-09-09T10:56:11;4.10;;;1.33;;
21564;SDS011;10943;48.738;9.320;2022-09-09T11:01:52;4.50;;;1.20;;
21564;SDS011;10943;48.738;9.320;2022-09-09T11:07:35;5.57;;;1.50;;
21564;SDS011;10943;48.738;9.320;2022-09-09T11:13:17;4.57;;;1.25;;
21564;SDS011;10943;48.738;9.320;2022-09-09T11:16:25;4.40;;;1.08;;
21564;SDS011;10943;48.738;9.320;2022-09-09T11:30:42;5.90;;;1.40;;
21564;SDS011;10943;48.738;9.320;2022-09-09T11:33:49;4.22;;;1.27;;
21564;SDS011;10943;48.738;9.320;2022-09-09T11:49:47;4.82;;;0.90;;
21564;SDS011;10943;48.738;9.320;2022-09-09T11:52:24;5.30;;;1.42;;
21564;SDS011;10943;48.738;9.320;2022-09-09T11:58:04;5.95;;;0.93;;
21564;SDS011;10943;48.738;9.320;2022-09-09T12:01:16;4.88;;;0.82;;
21564;SDS011;10943;48.738;9.320;2022-09-09T12:04:13;3.80;;;0.95;;
21564;SDS011;10943;48.738;9.320;2022-09-09T12:07:01;3.13;;;0.77;;
21564;SDS011;10943;48.738;9.320;2022-09-09T12:09:52;4.28;;;1.10;;
21564;SDS011;10943;48.738;9.320;2022-09-09T12:13:15;1.75;;;0.50;;
21564;SDS011;10943;48.738;9.320;2022-09-09T12:21:24;2.05;;;0.50;;
21564;SDS011;10943;48.738;9.320;2022-09-09T12:24:30;1.27;;;0.30;;
21564;SDS011;10943;48.738;9.320;2022-09-09T12:27:21;1.38;;;0.30;;
21564;SDS011;10943;48.738;9.320;2022-09-09T12:32:40;1.92;;;0.40;;
21564;SDS011;10943;48.738;9.320;2022-09-09T12:35:13;1.00;;;0.30;;
21564;SDS011;10943;48.738;9.320;2022-09-09T12:37:54;1.40;;;0.30;;
21564;SDS011;10943;48.738;9.320;2022-09-09T12:40:30;2.67;;;0.52;;
21564;SDS011;10943;48.738;9.320;2022-09-09T12:43:14;3.53;;;0.38;;
21564;SDS011;10943;48.738;9.320;2022-09-09T12:45:48;1.80;;;0.38;;
21564;SDS011;10943;48.738;9.320;2022-09-09T12:48:27;1.02;;;0.30;;
21564;SDS011;10943;48.738;9.320;2022-09-09T12:51:05;2.50;;;0.50;;
21564;SDS011;10943;48.738;9.320;2022-09-09T12:53:51;3.53;;;0.50;;
21564;SDS011;10943;48.738;9.320;2022-09-09T12:56:21;2.72;;;0.50;;
21564;SDS011;10943;48.738;9.320;2022-09-09T12:58:56;3.00;;;0.65;;
21564;SDS011;10943;48.738;9.320;2022-09-09T13:01:28;4.45;;;0.77;;
21564;SDS011;10943;48.738;9.320;2022-09-09T13:04:00;3.15;;;0.68;;
21564;SDS011;10943;48.738;9.320;2022-09-09T13:06:29;3.25;;;0.80;;
21564;SDS011;10943;48.738;9.320;2022-09-09T13:09:01;2.20;;;0.60;;
21564;SDS011;10943;48.738;9.320;2022-09-09T13:14:18;4.97;;;0.80;;
21564;SDS011;10943;48.738;9.320;2022-09-09T13:16:57;4.30;;;0.70;;
21564;SDS011;10943;48.738;9.320;2022-09-09T13:19:35;3.40;;;0.60;;
21564;SDS011;10943;48.738;9.320;2022-09-09T13:22:11;2.70;;;0.60;;
21564;SDS011;10943;48.738;9.320;2022-09-09T13:24:58;3.70;;;0.70;;
21564;SDS011;10943;48.738;9.320;2022-09-09T13:27:56;3.03;;;0.43;;
21564;SDS011;10943;48.738;9.320;2022-09-09T13:30:30;3.35;;;0.40;;
21564;SDS011;10943;48.738;9.320;2022-09-09T13:49:29;2.63;;;0.57;;
21564;SDS011;10943;48.738;9.320;2022-09-09T13:52:10;4.75;;;0.65;;
21564;SDS011;10943;48.738;9.320;2022-09-09T13:54:47;2.60;;;0.40;;
21564;SDS011;10943;48.738;9.320;2022-09-09T13:57:27;4.20;;;0.60;;
21564;SDS011;10943;48.738;9.320;2022-09-09T14:00:05;3.42;;;0.60;;
21564;SDS011;10943;48.738;9.320;2022-09-09T14:02:49;4.63;;;0.65;;
21564;SDS011;10943;48.738;9.320;2022-09-09T14:05:31;5.18;;;0.70;;
21564;SDS011;10943;48.738;9.320;2022-09-09T14:08:34;5.10;;;0.57;;
21564;SDS011;10943;48.738;9.320;2022-09-09T14:11:08;3.20;;;0.57;;
21564;SDS011;10943;48.738;9.320;2022-09-09T14:13:50;3.53;;;0.60;;
21564;SDS011;10943;48.738;9.320;2022-09-09T14:16:26;4.28;;;0.65;;
21564;SDS011;10943;48.738;9.320;2022-09-09T14:19:10;3.88;;;0.50;;
21564;SDS011;10943;48.738;9.320;2022-09-09T14:21:46;2.80;;;0.70;;
21564;SDS011;10943;48.738;9.320;2022-09-09T14:24:17;5.50;;;0.68;;
21564;SDS011;10943;48.738;9.320;2022-09-09T14:26:49;2.88;;;0.52;;
21564;SDS011;10943;48.738;9.320;2022-09-09T14:29:19;6.85;;;1.10;;
21564;SDS011;10943;48.738;9.320;2022-09-09T14:31:47;4.78;;;0.80;;
21564;SDS011;10943;48.738;9.320;2022-09-09T14:34:15;3.67;;;0.63;;
21564;SDS011;10943;48.738;9.320;2022-09-09T14:36:46;3.08;;;0.60;;
21564;SDS011;10943;48.738;9.320;2022-09-09T14:39:14;3.13;;;0.60;;
21564;SDS011;10943;48.738;9.320;2022-09-09T14:41:42;2.40;;;0.40;;
21564;SDS011;10943;48.738;9.320;2022-09-09T14:44:12;3.28;;;0.40;;
21564;SDS011;10943;48.738;9.320;2022-09-09T14:46:40;4.07;;;0.55;;
21564;SDS011;10943;48.738;9.320;2022-09-09T14:49:09;2.95;;;0.60;;
21564;SDS011;10943;48.738;9.320;2022-09-09T14:51:37;3.72;;;0.70;;
21564;SDS011;10943;48.738;9.320;2022-09-09T14:54:05;3.03;;;0.50;;
21564;SDS011;10943;48.738;9.320;2022-09-09T14:56:33;4.97;;;0.63;;
21564;SDS011;10943;48.738;9.320;2022-09-09T14:59:02;2.08;;;0.40;;
21564;SDS011;10943;48.738;9.320;2022-09-09T15:01:30;2.28;;;0.40;;
21564;SDS011;10943;48.738;9.320;2022-09-09T15:03:59;2.45;;;0.40;;
21564;SDS011;10943;48.738;9.320;2022-09-09T15:06:32;3.70;;;0.50;;
21564;SDS011;10943;48.738;9.320;2022-09-09T15:09:04;3.22;;;0.80;;
21564;SDS011;10943;48.738;9.320;2022-09-09T15:11:33;1.85;;;0.50;;
21564;SDS011;10943;48.738;9.320;2022-09-09T15:14:04;3.50;;;0.50;;
21564;SDS011;10943;48.738;9.320;2022-09-09T15:16:35;2.42;;;0.40;;
21564;SDS011;10943;48.738;9.320;2022-09-09T15:19:03;2.85;;;0.50;;
21564;SDS011;10943;48.738;9.320;2022-09-09T15:21:32;4.35;;;0.50;;
21564;SDS011;10943;48.738;9.320;2022-09-09T15:24:03;3.33;;;0.60;;
21564;SDS011;10943;48.738;9.320;2022-09-09T15:26:35;3.42;;;0.60;;
21564;SDS011;10943;48.738;9.320;2022-09-09T15:29:05;2.70;;;0.50;;
21564;SDS011;10943;48.738;9.320;2022-09-09T15:31:35;2.47;;;0.60;;
21564;SDS011;10943;48.738;9.320;2022-09-09T15:34:04;2.63;;;0.50;;
21564;SDS011;10943;48.738;9.320;2022-09-09T15:36:34;4.20;;;1.00;;
21564;SDS011;10943;48.738;9.320;2022-09-09T15:39:09;4.15;;;1.05;;
21564;SDS011;10943;48.738;9.320;2022-09-09T15:41:45;5.47;;;0.90;;
21564;SDS011;10943;48.738;9.320;2022-09-09T15:44:15;3.58;;;0.73;;
21564;SDS011;10943;48.738;9.320;2022-09-09T15:46:50;3.05;;;0.60;;
21564;SDS011;10943;48.738;9.320;2022-09-09T15:52:00;3.70;;;0.68;;
21564;SDS011;10943;48.738;9.320;2022-09-09T15:54:31;3.17;;;0.70;;
21564;SDS011;10943;48.738;9.320;2022-09-09T15:57:03;3.60;;;0.52;;
21564;SDS011;10943;48.738;9.320;2022-09-09T15:59:34;3.92;;;0.70;;
21564;SDS011;10943;48.738;9.320;2022-09-09T16:02:02;4.35;;;0.82;;
21564;SDS011;10943;48.738;9.320;2022-09-09T16:04:31;3.50;;;0.90;;
21564;SDS011;10943;48.738;9.320;2022-09-09T16:09:54;4.43;;;0.90;;
21564;SDS011;10943;48.738;9.320;2022-09-09T16:12:22;5.57;;;1.38;;
21564;SDS011;10943;48.738;9.320;2022-09-09T16:14:50;7.05;;;5.13;;
21564;SDS011;10943;48.738;9.320;2022-09-09T16:17:18;4.15;;;0.82;;
21564;SDS011;10943;48.738;9.320;2022-09-09T16:19:47;3.33;;;0.77;;
21564;SDS011;10943;48.738;9.320;2022-09-09T16:22:15;2.50;;;0.45;;
21564;SDS011;10943;48.738;9.320;2022-09-09T16:24:44;2.80;;;0.60;;
21564;SDS011;10943;48.738;9.320;2022-09-09T16:27:12;3.80;;;0.70;;
21564;SDS011;10943;48.738;9.320;2022-09-09T16:29:40;2.45;;;0.45;;
21564;SDS011;10943;48.738;9.320;2022-09-09T16:32:08;2.42;;;0.50;;
21564;SDS011;10943;48.738;9.320;2022-09-09T16:34:36;6.03;;;0.63;;
21564;SDS011;10943;48.738;9.320;2022-09-09T16:37:04;2.25;;;0.38;;
21564;SDS011;10943;48.738;9.320;2022-09-09T16:39:31;2.38;;;0.40;;
21564;SDS011;10943;48.738;9.320;2022-09-09T16:41:59;2.85;;;0.60;;
21564;SDS011;10943;48.738;9.320;2022-09-09T16:44:28;5.35;;;0.50;;
21564;SDS011;10943;48.738;9.320;2022-09-09T16:46:57;3.17;;;0.60;;
21564;SDS011;10943;48.738;9.320;2022-09-09T16:49:27;2.05;;;0.55;;
21564;SDS011;10943;48.738;9.320;2022-09-09T16:51:58;3.60;;;0.65;;
21564;SDS011;10943;48.738;9.320;2022-09-09T16:54:26;3.45;;;0.60;;
21564;SDS011;10943;48.738;9.320;2022-09-09T16:56:55;3.10;;;0.60;;
21564;SDS011;10943;48.738;9.320;2022-09-09T16:59:24;4.72;;;0.80;;
21564;SDS011;10943;48.738;9.320;2022-09-09T17:01:53;5.22;;;1.30;;
21564;SDS011;10943;48.738;9.320;2022-09-09T17:04:22;4.57;;;1.50;;
21564;SDS011;10943;48.738;9.320;2022-09-09T17:06:54;5.10;;;1.27;;
21564;SDS011;10943;48.738;9.320;2022-09-09T17:09:24;4.07;;;0.93;;
21564;SDS011;10943;48.738;9.320;2022-09-09T17:11:56;4.28;;;1.00;;
21564;SDS011;10943;48.738;9.320;2022-09-09T17:14:23;3.30;;;0.70;;
21564;SDS011;10943;48.738;9.320;2022-09-09T17:16:51;8.77;;;1.30;;
21564;SDS011;10943;48.738;9.320;2022-09-09T17:19:19;3.95;;;1.00;;
21564;SDS011;10943;48.738;9.320;2022-09-09T17:21:46;2.78;;;0.57;;
21564;SDS011;10943;48.738;9.320;2022-09-09T17:24:34;2.60;;;0.60;;
21564;SDS011;10943;48.738;9.320;2022-09-09T17:27:04;5.32;;;0.88;;
21564;SDS011;10943;48.738;9.320;2022-09-09T17:29:32;3.42;;;0.70;;
21564;SDS011;10943;48.738;9.320;2022-09-09T17:32:02;2.42;;;0.50;;
21564;SDS011;10943;48.738;9.320;2022-09-09T17:34:31;3.47;;;0.70;;
21564;SDS011;10943;48.738;9.320;2022-09-09T17:37:01;3.60;;;0.90;;
21564;SDS011;10943;48.738;9.320;2022-09-09T17:39:30;2.55;;;0.68;;
21564;SDS011;10943;48.738;9.320;2022-09-09T17:41:59;4.03;;;1.08;;
21564;SDS011;10943;48.738;9.320;2022-09-09T17:44:26;4.50;;;1.42;;
21564;SDS011;10943;48.738;9.320;2022-09-09T17:46:55;3.38;;;0.93;;
21564;SDS011;10943;48.738;9.320;2022-09-09T17:49:22;3.55;;;1.05;;
21564;SDS011;10943;48.738;9.320;2022-09-09T17:51:50;2.88;;;0.90;;
21564;SDS011;10943;48.738;9.320;2022-09-09T17:54:22;2.92;;;0.63;;
21564;SDS011;10943;48.738;9.320;2022-09-09T17:56:50;1.42;;;0.43;;
21564;SDS011;10943;48.738;9.320;2022-09-09T17:59:18;2.40;;;0.60;;
21564;SDS011;10943;48.738;9.320;2022-09-09T18:01:47;4.03;;;0.73;;
21564;SDS011;10943;48.738;9.320;2022-09-09T18:04:17;3.97;;;0.60;;
21564;SDS011;10943;48.738;9.320;2022-09-09T18:06:47;3.88;;;0.50;;
21564;SDS011;10943;48.738;9.320;2022-09-09T18:09:21;2.85;;;0.60;;
21564;SDS011;10943;48.738;9.320;2022-09-09T18:11:52;3.72;;;0.60;;
21564;SDS011;10943;48.738;9.320;2022-09-09T18:14:25;2.95;;;0.80;;
21564;SDS011;10943;48.738;9.320;2022-09-09T18:16:57;3.88;;;0.70;;
21564;SDS011;10943;48.738;9.320;2022-09-09T18:19:28;2.47;;;0.63;;
21564;SDS011;10943;48.738;9.320;2022-09-09T18:21:58;2.13;;;0.55;;